sensor_id;sensor_type;location;lat;lon;timestamp;P1;durP1;ratioP1;P2;durP2;ratioP2
53642;SDS011;39546;45.534;12.048;2022-10-17T00:02:28;27.62;;;22.90;;
53642;SDS011;39546;45.534;12.048;2022-10-17T00:08:30;32.75;;;25.02;;
53642;SDS011;39546;45.534;12.048;2022-10-17T00:14:32;33.35;;;26.37;;
53642;SDS011;39546;45.534;12.048;2022-10-17T00:20:35;34.17;;;27.17;;
53642;SDS011;39546;45.534;12.048;2022-10-17T00:26:37;34.55;;;26.30;;
53642;SDS011;39546;45.534;12.048;2022-10-17T00:32:39;29.33;;;21.52;;
53642;SDS011;39546;45.534;12.048;2022-10-17T00:38:42;32.30;;;24.33;;
53642;SDS011;39546;45.534;12.048;2022-10-17T00:50:47;34.25;;;28.17;;
53642;SDS011;39546;45.534;12.048;2022-10-17T00:56:51;32.58;;;26.42;;
53642;SDS011;39546;45.534;12.048;2022-10-17T01:02:55;36.40;;;28.00;;
53642;SDS011;39546;45.534;12.048;2022-10-17T01:08:57;36.58;;;27.20;;
53642;SDS011;39546;45.534;12.048;2022-10-17T01:21:29;34.38;;;27.27;;
53642;SDS011;39546;45.534;12.048;2022-10-17T01:34:32;31.20;;;27.35;;
53642;SDS011;39546;45.534;12.048;2022-10-17T01:40:39;38.40;;;28.33;;
53642;SDS011;39546;45.534;12.048;2022-10-17T01:46:49;44.40;;;33.60;;
53642;SDS011;39546;45.534;12.048;2022-10-17T01:53:02;31.48;;;25.25;;
53642;SDS011;39546;45.534;12.048;2022-10-17T01:59:10;34.70;;;26.25;;
53642;SDS011;39546;45.534;12.048;2022-10-17T02:05:16;35.95;;;25.05;;
53642;SDS011;39546;45.534;12.048;2022-10-17T02:11:23;36.17;;;27.52;;
53642;SDS011;39546;45.534;12.048;2022-10-17T02:17:31;27.58;;;23.12;;
53642;SDS011;39546;45.534;12.048;2022-10-17T02:36:32;26.25;;;23.45;;
53642;SDS011;39546;45.534;12.048;2022-10-17T02:42:41;27.20;;;21.42;;
53642;SDS011;39546;45.534;12.048;2022-10-17T02:48:47;29.48;;;22.02;;
53642;SDS011;39546;45.534;12.048;2022-10-17T03:01:24;30.83;;;20.33;;
53642;SDS011;39546;45.534;12.048;2022-10-17T03:07:27;35.70;;;27.05;;
53642;SDS011;39546;45.534;12.048;2022-10-17T03:13:30;33.55;;;26.23;;
53642;SDS011;39546;45.534;12.048;2022-10-17T03:19:34;27.70;;;23.08;;
53642;SDS011;39546;45.534;12.048;2022-10-17T03:25:36;32.05;;;21.75;;
53642;SDS011;39546;45.534;12.048;2022-10-17T03:31:39;32.05;;;22.77;;
53642;SDS011;39546;45.534;12.048;2022-10-17T03:37:41;28.85;;;18.50;;
53642;SDS011;39546;45.534;12.048;2022-10-17T03:43:44;35.00;;;22.98;;
53642;SDS011;39546;45.534;12.048;2022-10-17T03:49:46;33.47;;;22.10;;
53642;SDS011;39546;45.534;12.048;2022-10-17T03:55:49;38.53;;;21.10;;
53642;SDS011;39546;45.534;12.048;2022-10-17T04:01:52;33.10;;;25.20;;
53642;SDS011;39546;45.534;12.048;2022-10-17T04:07:55;42.38;;;28.67;;
53642;SDS011;39546;45.534;12.048;2022-10-17T04:13:58;29.48;;;21.67;;
53642;SDS011;39546;45.534;12.048;2022-10-17T04:20:02;40.10;;;29.63;;
53642;SDS011;39546;45.534;12.048;2022-10-17T04:26:05;35.53;;;26.83;;
53642;SDS011;39546;45.534;12.048;2022-10-17T04:32:08;37.67;;;26.83;;
53642;SDS011;39546;45.534;12.048;2022-10-17T04:38:12;31.83;;;25.98;;
53642;SDS011;39546;45.534;12.048;2022-10-17T04:44:15;27.48;;;19.75;;
53642;SDS011;39546;45.534;12.048;2022-10-17T04:50:17;24.15;;;19.95;;
53642;SDS011;39546;45.534;12.048;2022-10-17T04:56:34;29.75;;;22.02;;
53642;SDS011;39546;45.534;12.048;2022-10-17T05:02:37;26.77;;;20.10;;
53642;SDS011;39546;45.534;12.048;2022-10-17T05:08:39;24.42;;;21.17;;
53642;SDS011;39546;45.534;12.048;2022-10-17T05:14:41;26.65;;;20.17;;
53642;SDS011;39546;45.534;12.048;2022-10-17T05:20:44;26.08;;;20.27;;
53642;SDS011;39546;45.534;12.048;2022-10-17T05:26:52;21.23;;;17.40;;
53642;SDS011;39546;45.534;12.048;2022-10-17T05:32:54;22.00;;;16.30;;
53642;SDS011;39546;45.534;12.048;2022-10-17T05:38:57;22.37;;;18.60;;
53642;SDS011;39546;45.534;12.048;2022-10-17T05:45:00;28.75;;;24.70;;
53642;SDS011;39546;45.534;12.048;2022-10-17T05:51:05;31.30;;;21.50;;
53642;SDS011;39546;45.534;12.048;2022-10-17T05:57:09;31.45;;;22.15;;
53642;SDS011;39546;45.534;12.048;2022-10-17T06:03:12;24.23;;;18.25;;
53642;SDS011;39546;45.534;12.048;2022-10-17T06:09:14;27.65;;;22.77;;
53642;SDS011;39546;45.534;12.048;2022-10-17T06:15:22;25.88;;;18.75;;
53642;SDS011;39546;45.534;12.048;2022-10-17T06:21:26;26.10;;;19.23;;
53642;SDS011;39546;45.534;12.048;2022-10-17T06:27:28;26.45;;;17.15;;
53642;SDS011;39546;45.534;12.048;2022-10-17T06:33:30;28.20;;;21.77;;
53642;SDS011;39546;45.534;12.048;2022-10-17T06:39:33;34.08;;;23.58;;
53642;SDS011;39546;45.534;12.048;2022-10-17T06:45:39;25.52;;;19.25;;
53642;SDS011;39546;45.534;12.048;2022-10-17T06:51:42;35.10;;;21.62;;
53642;SDS011;39546;45.534;12.048;2022-10-17T06:57:44;32.00;;;24.23;;
53642;SDS011;39546;45.534;12.048;2022-10-17T07:03:49;26.00;;;23.12;;
53642;SDS011;39546;45.534;12.048;2022-10-17T07:09:51;32.70;;;24.65;;
53642;SDS011;39546;45.534;12.048;2022-10-17T07:15:57;49.50;;;37.42;;
53642;SDS011;39546;45.534;12.048;2022-10-17T07:22:02;32.70;;;26.20;;
53642;SDS011;39546;45.534;12.048;2022-10-17T07:28:18;35.25;;;27.95;;
53642;SDS011;39546;45.534;12.048;2022-10-17T07:34:21;35.75;;;25.02;;
53642;SDS011;39546;45.534;12.048;2022-10-17T07:40:28;33.28;;;25.10;;
53642;SDS011;39546;45.534;12.048;2022-10-17T07:46:31;28.00;;;22.08;;
53642;SDS011;39546;45.534;12.048;2022-10-17T07:52:33;35.53;;;24.33;;
53642;SDS011;39546;45.534;12.048;2022-10-17T07:58:36;33.38;;;25.05;;
53642;SDS011;39546;45.534;12.048;2022-10-17T08:04:38;33.08;;;24.90;;
53642;SDS011;39546;45.534;12.048;2022-10-17T08:10:40;39.75;;;29.27;;
53642;SDS011;39546;45.534;12.048;2022-10-17T08:16:42;29.60;;;23.73;;
53642;SDS011;39546;45.534;12.048;2022-10-17T08:22:49;30.95;;;23.23;;
53642;SDS011;39546;45.534;12.048;2022-10-17T08:35:16;36.28;;;27.20;;
53642;SDS011;39546;45.534;12.048;2022-10-17T08:41:23;55.78;;;44.05;;
53642;SDS011;39546;45.534;12.048;2022-10-17T08:47:41;45.35;;;36.55;;
53642;SDS011;39546;45.534;12.048;2022-10-17T08:53:56;55.40;;;39.78;;
53642;SDS011;39546;45.534;12.048;2022-10-17T09:00:22;36.67;;;28.70;;
53642;SDS011;39546;45.534;12.048;2022-10-17T09:06:26;34.42;;;25.77;;
53642;SDS011;39546;45.534;12.048;2022-10-17T09:25:21;61.53;;;46.50;;
53642;SDS011;39546;45.534;12.048;2022-10-17T09:31:24;36.47;;;28.70;;
53642;SDS011;39546;45.534;12.048;2022-10-17T09:37:31;44.05;;;34.70;;
53642;SDS011;39546;45.534;12.048;2022-10-17T09:43:33;42.25;;;35.17;;
53642;SDS011;39546;45.534;12.048;2022-10-17T09:49:40;45.65;;;34.63;;
53642;SDS011;39546;45.534;12.048;2022-10-17T09:55:49;37.50;;;27.67;;
53642;SDS011;39546;45.534;12.048;2022-10-17T10:08:22;59.28;;;45.15;;
53642;SDS011;39546;45.534;12.048;2022-10-17T10:14:29;46.80;;;34.80;;
53642;SDS011;39546;45.534;12.048;2022-10-17T10:20:35;44.38;;;37.08;;
53642;SDS011;39546;45.534;12.048;2022-10-17T10:26:44;69.95;;;50.22;;
53642;SDS011;39546;45.534;12.048;2022-10-17T10:32:49;62.92;;;45.40;;
53642;SDS011;39546;45.534;12.048;2022-10-17T10:39:07;46.40;;;36.80;;
53642;SDS011;39546;45.534;12.048;2022-10-17T10:45:47;43.42;;;30.85;;
53642;SDS011;39546;45.534;12.048;2022-10-17T10:51:48;39.50;;;29.27;;
53642;SDS011;39546;45.534;12.048;2022-10-17T10:57:52;36.95;;;32.15;;
53642;SDS011;39546;45.534;12.048;2022-10-17T11:16:43;45.03;;;30.33;;
53642;SDS011;39546;45.534;12.048;2022-10-17T11:22:57;35.40;;;30.27;;
53642;SDS011;39546;45.534;12.048;2022-10-17T11:35:18;44.03;;;34.15;;
53642;SDS011;39546;45.534;12.048;2022-10-17T11:41:42;37.20;;;30.40;;
53642;SDS011;39546;45.534;12.048;2022-10-17T11:47:52;43.83;;;35.17;;
53642;SDS011;39546;45.534;12.048;2022-10-17T11:54:40;36.92;;;27.27;;
53642;SDS011;39546;45.534;12.048;2022-10-17T12:00:55;50.10;;;41.40;;
53642;SDS011;39546;45.534;12.048;2022-10-17T12:07:14;35.25;;;27.30;;
53642;SDS011;39546;45.534;12.048;2022-10-17T12:19:51;32.92;;;26.23;;
53642;SDS011;39546;45.534;12.048;2022-10-17T12:25:55;46.25;;;27.15;;
53642;SDS011;39546;45.534;12.048;2022-10-17T12:32:11;42.13;;;28.63;;
53642;SDS011;39546;45.534;12.048;2022-10-17T12:57:12;33.25;;;25.52;;
53642;SDS011;39546;45.534;12.048;2022-10-17T13:03:21;36.42;;;26.25;;
53642;SDS011;39546;45.534;12.048;2022-10-17T13:09:34;50.05;;;34.25;;
53642;SDS011;39546;45.534;12.048;2022-10-17T13:15:47;32.92;;;24.95;;
53642;SDS011;39546;45.534;12.048;2022-10-17T13:28:02;29.65;;;21.83;;
53642;SDS011;39546;45.534;12.048;2022-10-17T13:34:17;26.62;;;20.73;;
53642;SDS011;39546;45.534;12.048;2022-10-17T13:40:26;28.08;;;19.90;;
53642;SDS011;39546;45.534;12.048;2022-10-17T13:46:31;27.27;;;19.83;;
53642;SDS011;39546;45.534;12.048;2022-10-17T13:52:34;25.55;;;19.73;;
53642;SDS011;39546;45.534;12.048;2022-10-17T13:58:43;27.67;;;22.42;;
53642;SDS011;39546;45.534;12.048;2022-10-17T14:04:46;44.22;;;30.80;;
53642;SDS011;39546;45.534;12.048;2022-10-17T14:10:48;37.47;;;29.40;;
53642;SDS011;39546;45.534;12.048;2022-10-17T14:16:50;26.60;;;21.92;;
53642;SDS011;39546;45.534;12.048;2022-10-17T14:22:54;40.92;;;29.77;;
53642;SDS011;39546;45.534;12.048;2022-10-17T14:29:25;30.48;;;21.08;;
53642;SDS011;39546;45.534;12.048;2022-10-17T14:35:28;25.27;;;19.87;;
53642;SDS011;39546;45.534;12.048;2022-10-17T14:41:31;25.15;;;19.62;;
53642;SDS011;39546;45.534;12.048;2022-10-17T14:47:35;23.55;;;19.10;;
53642;SDS011;39546;45.534;12.048;2022-10-17T14:53:38;22.20;;;16.90;;
53642;SDS011;39546;45.534;12.048;2022-10-17T14:59:41;25.95;;;18.92;;
53642;SDS011;39546;45.534;12.048;2022-10-17T15:05:44;23.77;;;18.20;;
53642;SDS011;39546;45.534;12.048;2022-10-17T15:11:46;20.55;;;15.60;;
53642;SDS011;39546;45.534;12.048;2022-10-17T15:24:14;16.58;;;14.00;;
53642;SDS011;39546;45.534;12.048;2022-10-17T15:30:24;20.58;;;14.23;;
53642;SDS011;39546;45.534;12.048;2022-10-17T15:36:47;18.23;;;14.77;;
53642;SDS011;39546;45.534;12.048;2022-10-17T15:42:51;18.63;;;13.60;;
53642;SDS011;39546;45.534;12.048;2022-10-17T15:48:53;19.10;;;13.25;;
53642;SDS011;39546;45.534;12.048;2022-10-17T15:54:56;16.50;;;11.82;;
53642;SDS011;39546;45.534;12.048;2022-10-17T16:00:59;23.27;;;12.95;;
53642;SDS011;39546;45.534;12.048;2022-10-17T16:07:25;15.00;;;11.80;;
53642;SDS011;39546;45.534;12.048;2022-10-17T16:13:27;16.67;;;12.20;;
53642;SDS011;39546;45.534;12.048;2022-10-17T16:19:30;20.58;;;14.50;;
53642;SDS011;39546;45.534;12.048;2022-10-17T16:25:32;24.23;;;15.02;;
53642;SDS011;39546;45.534;12.048;2022-10-17T16:31:38;16.95;;;13.60;;
53642;SDS011;39546;45.534;12.048;2022-10-17T16:37:43;15.32;;;11.82;;
53642;SDS011;39546;45.534;12.048;2022-10-17T16:43:46;21.35;;;15.85;;
53642;SDS011;39546;45.534;12.048;2022-10-17T16:49:53;16.27;;;12.82;;
53642;SDS011;39546;45.534;12.048;2022-10-17T16:56:22;18.08;;;11.90;;
53642;SDS011;39546;45.534;12.048;2022-10-17T17:02:30;21.00;;;14.65;;
53642;SDS011;39546;45.534;12.048;2022-10-17T17:08:34;17.42;;;11.95;;
53642;SDS011;39546;45.534;12.048;2022-10-17T17:14:40;18.98;;;13.85;;
53642;SDS011;39546;45.534;12.048;2022-10-17T17:20:42;23.45;;;14.70;;
53642;SDS011;39546;45.534;12.048;2022-10-17T17:26:44;16.67;;;13.18;;
53642;SDS011;39546;45.534;12.048;2022-10-17T17:32:47;33.80;;;16.35;;
53642;SDS011;39546;45.534;12.048;2022-10-17T17:38:57;18.45;;;15.88;;
53642;SDS011;39546;45.534;12.048;2022-10-17T17:45:00;23.65;;;19.33;;
53642;SDS011;39546;45.534;12.048;2022-10-17T17:51:03;20.48;;;14.68;;
53642;SDS011;39546;45.534;12.048;2022-10-17T17:57:06;23.55;;;16.42;;
53642;SDS011;39546;45.534;12.048;2022-10-17T18:03:11;26.33;;;17.95;;
53642;SDS011;39546;45.534;12.048;2022-10-17T18:09:16;24.90;;;16.85;;
53642;SDS011;39546;45.534;12.048;2022-10-17T18:15:18;27.30;;;15.57;;
53642;SDS011;39546;45.534;12.048;2022-10-17T18:21:20;23.42;;;17.92;;
53642;SDS011;39546;45.534;12.048;2022-10-17T18:27:22;37.67;;;20.50;;
53642;SDS011;39546;45.534;12.048;2022-10-17T18:33:24;30.73;;;18.65;;
53642;SDS011;39546;45.534;12.048;2022-10-17T18:39:26;35.08;;;24.05;;
53642;SDS011;39546;45.534;12.048;2022-10-17T18:45:30;35.95;;;27.05;;
53642;SDS011;39546;45.534;12.048;2022-10-17T18:51:33;29.83;;;20.10;;
53642;SDS011;39546;45.534;12.048;2022-10-17T19:04:26;30.35;;;21.17;;
53642;SDS011;39546;45.534;12.048;2022-10-17T19:10:28;34.25;;;22.67;;
53642;SDS011;39546;45.534;12.048;2022-10-17T19:16:36;31.95;;;24.37;;
53642;SDS011;39546;45.534;12.048;2022-10-17T19:29:01;36.00;;;21.30;;
53642;SDS011;39546;45.534;12.048;2022-10-17T19:35:04;34.33;;;22.42;;
53642;SDS011;39546;45.534;12.048;2022-10-17T19:41:08;29.10;;;23.40;;
53642;SDS011;39546;45.534;12.048;2022-10-17T19:47:12;28.23;;;21.92;;
53642;SDS011;39546;45.534;12.048;2022-10-17T19:53:31;28.35;;;21.37;;
53642;SDS011;39546;45.534;12.048;2022-10-17T19:59:34;28.90;;;21.58;;
53642;SDS011;39546;45.534;12.048;2022-10-17T20:06:01;27.70;;;23.85;;
53642;SDS011;39546;45.534;12.048;2022-10-17T20:12:03;34.60;;;21.20;;
53642;SDS011;39546;45.534;12.048;2022-10-17T20:18:06;29.37;;;21.50;;
53642;SDS011;39546;45.534;12.048;2022-10-17T20:24:12;30.10;;;22.65;;
53642;SDS011;39546;45.534;12.048;2022-10-17T20:30:19;31.60;;;24.85;;
53642;SDS011;39546;45.534;12.048;2022-10-17T20:36:22;32.67;;;23.23;;
53642;SDS011;39546;45.534;12.048;2022-10-17T20:42:25;28.35;;;21.42;;
53642;SDS011;39546;45.534;12.048;2022-10-17T20:48:28;28.65;;;21.92;;
53642;SDS011;39546;45.534;12.048;2022-10-17T20:54:30;24.05;;;19.58;;
53642;SDS011;39546;45.534;12.048;2022-10-17T21:00:32;26.87;;;21.58;;
53642;SDS011;39546;45.534;12.048;2022-10-17T21:06:33;27.85;;;22.05;;
53642;SDS011;39546;45.534;12.048;2022-10-17T21:12:37;26.27;;;18.95;;
53642;SDS011;39546;45.534;12.048;2022-10-17T21:19:00;25.80;;;18.75;;
53642;SDS011;39546;45.534;12.048;2022-10-17T21:25:02;28.48;;;21.15;;
53642;SDS011;39546;45.534;12.048;2022-10-17T21:31:26;28.85;;;21.30;;
53642;SDS011;39546;45.534;12.048;2022-10-17T21:37:27;29.02;;;22.13;;
53642;SDS011;39546;45.534;12.048;2022-10-17T21:43:30;23.55;;;16.87;;
53642;SDS011;39546;45.534;12.048;2022-10-17T21:49:40;25.70;;;21.65;;
53642;SDS011;39546;45.534;12.048;2022-10-17T21:55:43;41.97;;;29.95;;
53642;SDS011;39546;45.534;12.048;2022-10-17T22:01:45;25.23;;;20.05;;
53642;SDS011;39546;45.534;12.048;2022-10-17T22:07:47;30.98;;;26.20;;
53642;SDS011;39546;45.534;12.048;2022-10-17T22:14:23;35.83;;;25.33;;
53642;SDS011;39546;45.534;12.048;2022-10-17T22:26:20;28.45;;;20.08;;
53642;SDS011;39546;45.534;12.048;2022-10-17T22:32:23;23.17;;;20.70;;
53642;SDS011;39546;45.534;12.048;2022-10-17T22:38:25;29.95;;;22.48;;
53642;SDS011;39546;45.534;12.048;2022-10-17T22:44:26;20.00;;;16.60;;
53642;SDS011;39546;45.534;12.048;2022-10-17T22:50:38;20.33;;;18.20;;
53642;SDS011;39546;45.534;12.048;2022-10-17T22:56:50;18.33;;;15.63;;
53642;SDS011;39546;45.534;12.048;2022-10-17T23:02:52;18.80;;;15.02;;
53642;SDS011;39546;45.534;12.048;2022-10-17T23:08:55;20.98;;;18.33;;
53642;SDS011;39546;45.534;12.048;2022-10-17T23:14:57;21.27;;;16.55;;
53642;SDS011;39546;45.534;12.048;2022-10-17T23:20:58;17.58;;;14.30;;
53642;SDS011;39546;45.534;12.048;2022-10-17T23:27:00;18.02;;;15.48;;
53642;SDS011;39546;45.534;12.048;2022-10-17T23:33:02;21.05;;;15.63;;
53642;SDS011;39546;45.534;12.048;2022-10-17T23:39:05;18.08;;;13.57;;
53642;SDS011;39546;45.534;12.048;2022-10-17T23:45:07;17.80;;;15.90;;
53642;SDS011;39546;45.534;12.048;2022-10-17T23:51:10;18.70;;;15.98;;
53642;SDS011;39546;45.534;12.048;2022-10-17T23:57:12;21.05;;;17.27;;
